sensor_id;sensor_type;location;lat;lon;timestamp;P1;durP1;ratioP1;P2;durP2;ratioP2
29686;SDS011;16599;47.078;15.536;2022-12-11T06:43:37;7.80;;;3.60;;
29686;SDS011;16599;47.078;15.536;2022-12-11T06:46:12;5.25;;;2.80;;
29686;SDS011;16599;47.078;15.536;2022-12-11T06:52:32;4.07;;;2.53;;
29686;SDS011;16599;47.078;15.536;2022-12-11T06:58:24;4.90;;;2.80;;
29686;SDS011;16599;47.078;15.536;2022-12-11T07:00:51;5.40;;;2.38;;
29686;SDS011;16599;47.078;15.536;2022-12-11T07:03:20;2.53;;;2.00;;
29686;SDS011;16599;47.078;15.536;2022-12-11T07:46:22;6.50;;;3.88;;
29686;SDS011;16599;47.078;15.536;2022-12-11T07:59:32;3.03;;;2.15;;
29686;SDS011;16599;47.078;15.536;2022-12-11T08:05:47;10.43;;;3.30;;
29686;SDS011;16599;47.078;15.536;2022-12-11T08:08:15;4.97;;;3.15;;
29686;SDS011;16599;47.078;15.536;2022-12-11T08:14:30;5.65;;;2.97;;
29686;SDS011;16599;47.078;15.536;2022-12-11T08:16:57;5.93;;;3.40;;
29686;SDS011;16599;47.078;15.536;2022-12-11T08:19:25;5.78;;;3.78;;
29686;SDS011;16599;47.078;15.536;2022-12-11T08:26:01;5.85;;;3.67;;
29686;SDS011;16599;47.078;15.536;2022-12-11T08:28:29;6.78;;;3.38;;
29686;SDS011;16599;47.078;15.536;2022-12-11T08:30:56;5.50;;;3.78;;
29686;SDS011;16599;47.078;15.536;2022-12-11T08:33:23;7.18;;;3.78;;
29686;SDS011;16599;47.078;15.536;2022-12-11T09:34:00;9.43;;;4.95;;
29686;SDS011;16599;47.078;15.536;2022-12-11T10:15:46;11.27;;;5.18;;
29686;SDS011;16599;47.078;15.536;2022-12-11T10:18:22;10.15;;;5.15;;
29686;SDS011;16599;47.078;15.536;2022-12-11T10:35:36;10.45;;;4.65;;
29686;SDS011;16599;47.078;15.536;2022-12-11T10:42:05;5.95;;;3.75;;
29686;SDS011;16599;47.078;15.536;2022-12-11T10:56:54;5.55;;;3.10;;
29686;SDS011;16599;47.078;15.536;2022-12-11T11:03:27;7.75;;;3.35;;
29686;SDS011;16599;47.078;15.536;2022-12-11T11:17:29;4.32;;;3.00;;
29686;SDS011;16599;47.078;15.536;2022-12-11T11:23:47;5.68;;;2.72;;
29686;SDS011;16599;47.078;15.536;2022-12-11T11:26:19;5.57;;;3.35;;
29686;SDS011;16599;47.078;15.536;2022-12-11T11:28:51;6.90;;;3.42;;
29686;SDS011;16599;47.078;15.536;2022-12-11T11:40:30;3.65;;;2.65;;
29686;SDS011;16599;47.078;15.536;2022-12-11T11:49:52;5.80;;;3.25;;
29686;SDS011;16599;47.078;15.536;2022-12-11T11:57:14;3.75;;;2.20;;
29686;SDS011;16599;47.078;15.536;2022-12-11T12:03:40;3.72;;;2.63;;
29686;SDS011;16599;47.078;15.536;2022-12-11T12:17:52;6.25;;;3.05;;
29686;SDS011;16599;47.078;15.536;2022-12-11T12:24:30;5.50;;;2.88;;
29686;SDS011;16599;47.078;15.536;2022-12-11T12:46:09;3.95;;;2.60;;
29686;SDS011;16599;47.078;15.536;2022-12-11T12:48:37;5.57;;;3.00;;
29686;SDS011;16599;47.078;15.536;2022-12-11T12:51:04;4.35;;;3.22;;
29686;SDS011;16599;47.078;15.536;2022-12-11T12:53:32;2.25;;;1.95;;
29686;SDS011;16599;47.078;15.536;2022-12-11T12:56:02;4.68;;;2.50;;
29686;SDS011;16599;47.078;15.536;2022-12-11T13:01:07;3.60;;;2.63;;
29686;SDS011;16599;47.078;15.536;2022-12-11T13:13:01;4.38;;;2.55;;
29686;SDS011;16599;47.078;15.536;2022-12-11T13:15:37;4.13;;;2.50;;
29686;SDS011;16599;47.078;15.536;2022-12-11T13:24:33;3.75;;;2.63;;
29686;SDS011;16599;47.078;15.536;2022-12-11T13:27:10;4.40;;;2.65;;
29686;SDS011;16599;47.078;15.536;2022-12-11T13:30:02;4.20;;;2.50;;
29686;SDS011;16599;47.078;15.536;2022-12-11T13:35:29;2.28;;;1.77;;
29686;SDS011;16599;47.078;15.536;2022-12-11T13:38:00;5.13;;;2.83;;
29686;SDS011;16599;47.078;15.536;2022-12-11T13:40:37;3.85;;;2.72;;
29686;SDS011;16599;47.078;15.536;2022-12-11T13:43:08;3.38;;;2.20;;
29686;SDS011;16599;47.078;15.536;2022-12-11T13:48:31;3.85;;;2.40;;
29686;SDS011;16599;47.078;15.536;2022-12-11T13:51:02;3.15;;;2.40;;
29686;SDS011;16599;47.078;15.536;2022-12-11T13:53:30;3.42;;;2.38;;
29686;SDS011;16599;47.078;15.536;2022-12-11T13:55:58;4.45;;;2.85;;
29686;SDS011;16599;47.078;15.536;2022-12-11T13:58:28;3.97;;;2.60;;
29686;SDS011;16599;47.078;15.536;2022-12-11T14:03:27;11.52;;;2.20;;
29686;SDS011;16599;47.078;15.536;2022-12-11T14:05:55;3.20;;;2.50;;
29686;SDS011;16599;47.078;15.536;2022-12-11T14:08:30;4.25;;;2.60;;
29686;SDS011;16599;47.078;15.536;2022-12-11T14:11:00;2.40;;;1.98;;
29686;SDS011;16599;47.078;15.536;2022-12-11T14:13:32;3.40;;;2.58;;
29686;SDS011;16599;47.078;15.536;2022-12-11T14:16:01;6.47;;;2.50;;
29686;SDS011;16599;47.078;15.536;2022-12-11T14:22:29;2.83;;;2.20;;
29686;SDS011;16599;47.078;15.536;2022-12-11T14:27:52;5.05;;;2.92;;
29686;SDS011;16599;47.078;15.536;2022-12-11T14:30:25;3.13;;;2.28;;
29686;SDS011;16599;47.078;15.536;2022-12-11T14:33:12;5.13;;;3.28;;
29686;SDS011;16599;47.078;15.536;2022-12-11T14:35:41;6.22;;;2.85;;
29686;SDS011;16599;47.078;15.536;2022-12-11T14:38:11;4.18;;;2.80;;
29686;SDS011;16599;47.078;15.536;2022-12-11T14:40:44;3.90;;;2.53;;
29686;SDS011;16599;47.078;15.536;2022-12-11T14:45:54;3.78;;;2.80;;
29686;SDS011;16599;47.078;15.536;2022-12-11T14:48:27;4.20;;;2.53;;
29686;SDS011;16599;47.078;15.536;2022-12-11T14:54:30;4.45;;;2.63;;
29686;SDS011;16599;47.078;15.536;2022-12-11T14:57:00;7.72;;;3.80;;
29686;SDS011;16599;47.078;15.536;2022-12-11T14:59:34;2.40;;;2.05;;
29686;SDS011;16599;47.078;15.536;2022-12-11T15:05:13;4.28;;;2.53;;
29686;SDS011;16599;47.078;15.536;2022-12-11T15:25:25;4.38;;;2.75;;
29686;SDS011;16599;47.078;15.536;2022-12-11T15:27:55;3.65;;;2.55;;
29686;SDS011;16599;47.078;15.536;2022-12-11T15:30:37;4.47;;;2.67;;
29686;SDS011;16599;47.078;15.536;2022-12-11T15:36:51;5.80;;;3.00;;
29686;SDS011;16599;47.078;15.536;2022-12-11T15:50:49;5.53;;;3.17;;
29686;SDS011;16599;47.078;15.536;2022-12-11T15:56:37;30.55;;;12.75;;
29686;SDS011;16599;47.078;15.536;2022-12-11T15:59:05;8.07;;;4.18;;
29686;SDS011;16599;47.078;15.536;2022-12-11T16:01:32;38.42;;;15.13;;
29686;SDS011;16599;47.078;15.536;2022-12-11T16:03:59;12.77;;;6.55;;
29686;SDS011;16599;47.078;15.536;2022-12-11T17:04:21;8.43;;;4.60;;
29686;SDS011;16599;47.078;15.536;2022-12-11T17:06:47;8.10;;;4.53;;
29686;SDS011;16599;47.078;15.536;2022-12-11T17:09:15;8.23;;;4.70;;
29686;SDS011;16599;47.078;15.536;2022-12-11T17:11:42;19.02;;;9.13;;
29686;SDS011;16599;47.078;15.536;2022-12-11T17:14:08;9.65;;;4.60;;
29686;SDS011;16599;47.078;15.536;2022-12-11T17:16:37;7.43;;;4.20;;
29686;SDS011;16599;47.078;15.536;2022-12-11T17:19:04;6.95;;;4.35;;
29686;SDS011;16599;47.078;15.536;2022-12-11T17:21:32;6.15;;;3.75;;
29686;SDS011;16599;47.078;15.536;2022-12-11T17:23:59;6.82;;;4.18;;
29686;SDS011;16599;47.078;15.536;2022-12-11T17:26:26;4.97;;;3.33;;
29686;SDS011;16599;47.078;15.536;2022-12-11T17:28:54;7.35;;;4.07;;
29686;SDS011;16599;47.078;15.536;2022-12-11T17:31:22;8.02;;;4.07;;
29686;SDS011;16599;47.078;15.536;2022-12-11T17:33:49;6.00;;;3.95;;
29686;SDS011;16599;47.078;15.536;2022-12-11T17:36:18;6.78;;;4.15;;
29686;SDS011;16599;47.078;15.536;2022-12-11T17:38:47;8.93;;;4.20;;
29686;SDS011;16599;47.078;15.536;2022-12-11T17:41:17;5.72;;;3.70;;
29686;SDS011;16599;47.078;15.536;2022-12-11T17:43:50;8.20;;;4.00;;
29686;SDS011;16599;47.078;15.536;2022-12-11T17:46:18;9.30;;;4.43;;
29686;SDS011;16599;47.078;15.536;2022-12-11T17:51:52;4.88;;;3.53;;
29686;SDS011;16599;47.078;15.536;2022-12-11T17:58:22;7.30;;;4.55;;
29686;SDS011;16599;47.078;15.536;2022-12-11T18:04:07;9.55;;;4.57;;
29686;SDS011;16599;47.078;15.536;2022-12-11T18:06:34;8.70;;;3.95;;
29686;SDS011;16599;47.078;15.536;2022-12-11T18:09:01;5.65;;;3.63;;
29686;SDS011;16599;47.078;15.536;2022-12-11T18:11:29;6.35;;;4.00;;
29686;SDS011;16599;47.078;15.536;2022-12-11T18:13:56;11.48;;;5.32;;
29686;SDS011;16599;47.078;15.536;2022-12-11T18:16:25;10.85;;;5.82;;
29686;SDS011;16599;47.078;15.536;2022-12-11T18:18:55;7.63;;;3.97;;
29686;SDS011;16599;47.078;15.536;2022-12-11T18:21:26;7.28;;;4.57;;
29686;SDS011;16599;47.078;15.536;2022-12-11T18:23:55;7.18;;;4.10;;
29686;SDS011;16599;47.078;15.536;2022-12-11T18:26:22;7.50;;;4.00;;
29686;SDS011;16599;47.078;15.536;2022-12-11T18:28:49;7.75;;;3.85;;
29686;SDS011;16599;47.078;15.536;2022-12-11T18:31:18;9.52;;;4.20;;
29686;SDS011;16599;47.078;15.536;2022-12-11T18:33:46;7.25;;;4.30;;
29686;SDS011;16599;47.078;15.536;2022-12-11T18:36:14;9.43;;;4.63;;
29686;SDS011;16599;47.078;15.536;2022-12-11T18:38:42;8.38;;;5.07;;
29686;SDS011;16599;47.078;15.536;2022-12-11T18:41:10;8.68;;;4.40;;
29686;SDS011;16599;47.078;15.536;2022-12-11T18:43:40;7.15;;;4.82;;
29686;SDS011;16599;47.078;15.536;2022-12-11T18:46:08;10.48;;;5.88;;
29686;SDS011;16599;47.078;15.536;2022-12-11T18:48:37;13.13;;;6.25;;
29686;SDS011;16599;47.078;15.536;2022-12-11T18:51:08;11.05;;;5.32;;
29686;SDS011;16599;47.078;15.536;2022-12-11T18:53:53;12.10;;;5.47;;
29686;SDS011;16599;47.078;15.536;2022-12-11T18:56:20;14.70;;;7.53;;
29686;SDS011;16599;47.078;15.536;2022-12-11T18:58:48;11.15;;;5.40;;
29686;SDS011;16599;47.078;15.536;2022-12-11T19:01:19;9.98;;;4.75;;
29686;SDS011;16599;47.078;15.536;2022-12-11T19:03:49;12.10;;;6.57;;
29686;SDS011;16599;47.078;15.536;2022-12-11T19:06:25;18.65;;;7.72;;
29686;SDS011;16599;47.078;15.536;2022-12-11T19:08:55;11.38;;;5.30;;
29686;SDS011;16599;47.078;15.536;2022-12-11T19:11:27;18.77;;;8.23;;
29686;SDS011;16599;47.078;15.536;2022-12-11T19:13:55;14.70;;;7.80;;
29686;SDS011;16599;47.078;15.536;2022-12-11T19:16:24;13.65;;;6.13;;
29686;SDS011;16599;47.078;15.536;2022-12-11T19:19:06;13.88;;;6.35;;
29686;SDS011;16599;47.078;15.536;2022-12-11T19:21:36;12.57;;;5.50;;
29686;SDS011;16599;47.078;15.536;2022-12-11T19:24:05;6.55;;;4.40;;
29686;SDS011;16599;47.078;15.536;2022-12-11T19:26:34;7.43;;;3.83;;
29686;SDS011;16599;47.078;15.536;2022-12-11T19:29:01;8.32;;;4.32;;
29686;SDS011;16599;47.078;15.536;2022-12-11T19:31:29;8.82;;;4.80;;
29686;SDS011;16599;47.078;15.536;2022-12-11T19:33:57;8.63;;;4.93;;
29686;SDS011;16599;47.078;15.536;2022-12-11T19:36:43;83.57;;;19.35;;
29686;SDS011;16599;47.078;15.536;2022-12-11T19:39:10;305.23;;;62.33;;
29686;SDS011;16599;47.078;15.536;2022-12-11T19:41:39;162.07;;;36.50;;
29686;SDS011;16599;47.078;15.536;2022-12-11T19:44:06;106.10;;;24.95;;
29686;SDS011;16599;47.078;15.536;2022-12-11T19:46:33;134.27;;;29.50;;
29686;SDS011;16599;47.078;15.536;2022-12-11T19:49:00;192.80;;;45.72;;
29686;SDS011;16599;47.078;15.536;2022-12-11T19:51:31;96.70;;;24.42;;
29686;SDS011;16599;47.078;15.536;2022-12-11T19:54:01;98.25;;;23.67;;
29686;SDS011;16599;47.078;15.536;2022-12-11T19:56:29;81.38;;;20.08;;
29686;SDS011;16599;47.078;15.536;2022-12-11T19:58:57;76.18;;;19.20;;
29686;SDS011;16599;47.078;15.536;2022-12-11T20:01:26;68.35;;;16.83;;
29686;SDS011;16599;47.078;15.536;2022-12-11T20:03:57;58.92;;;15.75;;
29686;SDS011;16599;47.078;15.536;2022-12-11T20:06:28;56.20;;;15.50;;
29686;SDS011;16599;47.078;15.536;2022-12-11T20:11:24;50.33;;;13.05;;
29686;SDS011;16599;47.078;15.536;2022-12-11T20:13:51;49.50;;;15.02;;
29686;SDS011;16599;47.078;15.536;2022-12-11T20:16:20;39.85;;;12.32;;
29686;SDS011;16599;47.078;15.536;2022-12-11T20:19:11;35.42;;;11.50;;
29686;SDS011;16599;47.078;15.536;2022-12-11T20:21:38;30.83;;;10.85;;
29686;SDS011;16599;47.078;15.536;2022-12-11T20:24:22;29.30;;;8.90;;
29686;SDS011;16599;47.078;15.536;2022-12-11T20:26:51;24.02;;;8.35;;
29686;SDS011;16599;47.078;15.536;2022-12-11T20:29:18;20.30;;;8.30;;
29686;SDS011;16599;47.078;15.536;2022-12-11T20:31:45;17.73;;;6.95;;
29686;SDS011;16599;47.078;15.536;2022-12-11T20:34:15;21.25;;;7.88;;
29686;SDS011;16599;47.078;15.536;2022-12-11T20:36:42;25.42;;;9.13;;
29686;SDS011;16599;47.078;15.536;2022-12-11T20:39:09;28.17;;;8.85;;
29686;SDS011;16599;47.078;15.536;2022-12-11T20:41:36;30.33;;;9.95;;
29686;SDS011;16599;47.078;15.536;2022-12-11T20:44:03;25.48;;;9.35;;
29686;SDS011;16599;47.078;15.536;2022-12-11T20:46:30;26.85;;;9.27;;
29686;SDS011;16599;47.078;15.536;2022-12-11T20:48:59;26.75;;;9.88;;
29686;SDS011;16599;47.078;15.536;2022-12-11T20:51:26;24.85;;;8.63;;
29686;SDS011;16599;47.078;15.536;2022-12-11T20:53:54;25.88;;;9.45;;
29686;SDS011;16599;47.078;15.536;2022-12-11T20:58:59;22.45;;;8.38;;
29686;SDS011;16599;47.078;15.536;2022-12-11T21:01:27;21.63;;;7.93;;
29686;SDS011;16599;47.078;15.536;2022-12-11T21:03:55;22.20;;;7.75;;
29686;SDS011;16599;47.078;15.536;2022-12-11T21:06:24;22.52;;;8.50;;
29686;SDS011;16599;47.078;15.536;2022-12-11T21:08:56;17.08;;;7.45;;
29686;SDS011;16599;47.078;15.536;2022-12-11T21:11:24;15.85;;;7.28;;
29686;SDS011;16599;47.078;15.536;2022-12-11T21:13:51;21.67;;;7.85;;
29686;SDS011;16599;47.078;15.536;2022-12-11T21:16:19;20.25;;;7.80;;
29686;SDS011;16599;47.078;15.536;2022-12-11T21:18:46;17.10;;;7.38;;
29686;SDS011;16599;47.078;15.536;2022-12-11T21:21:14;17.20;;;6.75;;
29686;SDS011;16599;47.078;15.536;2022-12-11T21:23:41;16.63;;;7.75;;
29686;SDS011;16599;47.078;15.536;2022-12-11T21:26:09;20.00;;;7.95;;
29686;SDS011;16599;47.078;15.536;2022-12-11T21:28:36;20.13;;;8.75;;
29686;SDS011;16599;47.078;15.536;2022-12-11T21:31:04;16.60;;;7.97;;
29686;SDS011;16599;47.078;15.536;2022-12-11T21:33:34;20.20;;;8.75;;
29686;SDS011;16599;47.078;15.536;2022-12-11T21:36:05;15.80;;;7.53;;
29686;SDS011;16599;47.078;15.536;2022-12-11T21:38:34;19.55;;;8.05;;
29686;SDS011;16599;47.078;15.536;2022-12-11T21:41:13;17.83;;;7.88;;
29686;SDS011;16599;47.078;15.536;2022-12-11T21:43:49;14.68;;;7.50;;
29686;SDS011;16599;47.078;15.536;2022-12-11T21:46:38;19.65;;;7.10;;
29686;SDS011;16599;47.078;15.536;2022-12-11T21:49:05;12.70;;;7.18;;
29686;SDS011;16599;47.078;15.536;2022-12-11T21:51:34;17.25;;;8.05;;
29686;SDS011;16599;47.078;15.536;2022-12-11T21:54:11;18.52;;;7.68;;
29686;SDS011;16599;47.078;15.536;2022-12-11T21:56:40;17.67;;;8.07;;
29686;SDS011;16599;47.078;15.536;2022-12-11T21:59:07;21.50;;;7.90;;
29686;SDS011;16599;47.078;15.536;2022-12-11T22:01:38;14.57;;;7.80;;
29686;SDS011;16599;47.078;15.536;2022-12-11T22:04:08;26.65;;;8.13;;
29686;SDS011;16599;47.078;15.536;2022-12-11T22:06:36;16.92;;;8.30;;
29686;SDS011;16599;47.078;15.536;2022-12-11T22:09:03;14.63;;;8.20;;
29686;SDS011;16599;47.078;15.536;2022-12-11T22:11:31;18.67;;;7.68;;
29686;SDS011;16599;47.078;15.536;2022-12-11T22:13:59;17.10;;;8.25;;
29686;SDS011;16599;47.078;15.536;2022-12-11T22:16:27;16.25;;;7.97;;
29686;SDS011;16599;47.078;15.536;2022-12-11T22:18:54;15.25;;;7.28;;
29686;SDS011;16599;47.078;15.536;2022-12-11T22:21:21;15.55;;;7.60;;
29686;SDS011;16599;47.078;15.536;2022-12-11T22:23:49;16.65;;;7.88;;
29686;SDS011;16599;47.078;15.536;2022-12-11T22:26:21;16.20;;;7.75;;
29686;SDS011;16599;47.078;15.536;2022-12-11T22:28:50;16.45;;;7.90;;
29686;SDS011;16599;47.078;15.536;2022-12-11T22:31:18;14.02;;;7.35;;
29686;SDS011;16599;47.078;15.536;2022-12-11T22:33:47;16.85;;;8.43;;
29686;SDS011;16599;47.078;15.536;2022-12-11T22:36:15;17.70;;;8.43;;
29686;SDS011;16599;47.078;15.536;2022-12-11T22:38:44;16.63;;;8.52;;
29686;SDS011;16599;47.078;15.536;2022-12-11T22:41:13;16.98;;;8.00;;
29686;SDS011;16599;47.078;15.536;2022-12-11T22:43:47;20.55;;;9.13;;
29686;SDS011;16599;47.078;15.536;2022-12-11T22:46:15;18.00;;;8.65;;
29686;SDS011;16599;47.078;15.536;2022-12-11T22:48:43;16.13;;;8.90;;
29686;SDS011;16599;47.078;15.536;2022-12-11T22:51:10;19.25;;;9.30;;
29686;SDS011;16599;47.078;15.536;2022-12-11T22:53:38;15.38;;;8.38;;
29686;SDS011;16599;47.078;15.536;2022-12-11T22:56:05;15.38;;;8.35;;
29686;SDS011;16599;47.078;15.536;2022-12-11T22:58:34;16.83;;;8.93;;
29686;SDS011;16599;47.078;15.536;2022-12-11T23:01:02;20.60;;;8.77;;
29686;SDS011;16599;47.078;15.536;2022-12-11T23:03:36;17.08;;;9.23;;
29686;SDS011;16599;47.078;15.536;2022-12-11T23:06:04;15.52;;;8.88;;
29686;SDS011;16599;47.078;15.536;2022-12-11T23:08:33;16.85;;;8.63;;
29686;SDS011;16599;47.078;15.536;2022-12-11T23:11:01;18.90;;;9.15;;
29686;SDS011;16599;47.078;15.536;2022-12-11T23:13:28;16.77;;;9.30;;
29686;SDS011;16599;47.078;15.536;2022-12-11T23:15:55;16.27;;;8.68;;
29686;SDS011;16599;47.078;15.536;2022-12-11T23:18:22;17.00;;;8.10;;
29686;SDS011;16599;47.078;15.536;2022-12-11T23:20:49;15.40;;;8.15;;
29686;SDS011;16599;47.078;15.536;2022-12-11T23:23:16;15.00;;;8.68;;
29686;SDS011;16599;47.078;15.536;2022-12-11T23:25:43;16.98;;;10.13;;
29686;SDS011;16599;47.078;15.536;2022-12-11T23:28:10;19.95;;;9.77;;
29686;SDS011;16599;47.078;15.536;2022-12-11T23:30:37;20.77;;;10.10;;
29686;SDS011;16599;47.078;15.536;2022-12-11T23:33:04;17.23;;;9.25;;
29686;SDS011;16599;47.078;15.536;2022-12-11T23:35:31;15.10;;;8.82;;
29686;SDS011;16599;47.078;15.536;2022-12-11T23:37:59;15.35;;;8.73;;
29686;SDS011;16599;47.078;15.536;2022-12-11T23:40:26;21.63;;;10.73;;
29686;SDS011;16599;47.078;15.536;2022-12-11T23:42:53;16.77;;;9.32;;
29686;SDS011;16599;47.078;15.536;2022-12-11T23:45:20;19.00;;;10.05;;
29686;SDS011;16599;47.078;15.536;2022-12-11T23:47:47;20.40;;;9.82;;
29686;SDS011;16599;47.078;15.536;2022-12-11T23:50:14;16.33;;;9.45;;
29686;SDS011;16599;47.078;15.536;2022-12-11T23:52:43;16.08;;;9.88;;
29686;SDS011;16599;47.078;15.536;2022-12-11T23:55:10;18.15;;;9.57;;
29686;SDS011;16599;47.078;15.536;2022-12-11T23:57:37;24.05;;;10.57;;
